createdAt,value
2022-09-30T00:03:48.854Z,22.21
2022-09-30T00:08:46.404Z,21.92
2022-09-30T00:13:58.189Z,21.97
2022-09-30T00:18:59.982Z,22.23
2022-09-30T00:23:59.133Z,22.16
2022-09-30T00:29:02.633Z,22.09
2022-09-30T00:34:10.888Z,21.69
2022-09-30T00:39:09.321Z,21.67
2022-09-30T00:44:48.504Z,21.69
2022-09-30T00:49:49.889Z,20.97
2022-09-30T00:54:55.261Z,20.92
2022-09-30T00:59:55.308Z,21.35
2022-09-30T01:04:54.320Z,20.93
2022-09-30T01:10:07.409Z,20.86
2022-09-30T01:15:05.171Z,21.02
2022-09-30T01:20:41.989Z,21.08
2022-09-30T01:26:09.456Z,20.48
2022-09-30T01:31:18.743Z,20.56
2022-09-30T01:36:38.197Z,20.31
2022-09-30T01:41:43.384Z,20.65
2022-09-30T01:46:46.672Z,20.66
2022-09-30T01:51:50.169Z,20.70
2022-09-30T01:56:52.067Z,20.81
2022-09-30T02:01:58.191Z,20.58
2022-09-30T02:07:00.954Z,20.55
2022-09-30T02:12:01.800Z,20.25
2022-09-30T02:17:03.759Z,19.86
2022-09-30T02:22:06.327Z,20.29
2022-09-30T02:27:07.072Z,19.65
2022-09-30T02:32:18.716Z,19.92
2022-09-30T02:37:32.891Z,19.61
2022-09-30T02:42:33.646Z,20.00
2022-09-30T02:47:42.764Z,19.82
2022-09-30T02:52:51.361Z,19.97
2022-09-30T02:58:00.216Z,20.14
2022-09-30T03:03:22.263Z,19.88
2022-09-30T03:08:19.869Z,19.24
2022-09-30T03:14:03.701Z,19.68
2022-09-30T03:19:24.697Z,19.21
2022-09-30T03:24:42.599Z,19.49
2022-09-30T03:29:47.328Z,19.27
2022-09-30T03:34:59.975Z,19.57
2022-09-30T03:40:02.441Z,19.63
2022-09-30T03:45:07.753Z,19.73
2022-09-30T03:50:16.043Z,19.44
2022-09-30T03:55:13.495Z,19.83
2022-09-30T04:00:12.842Z,19.79
2022-09-30T04:05:40.186Z,19.08
2022-09-30T04:10:42.168Z,19.48
2022-09-30T04:15:41.071Z,19.11
2022-09-30T04:20:39.532Z,19.56
2022-09-30T04:25:39.704Z,19.23
2022-09-30T04:30:49.109Z,19.58
2022-09-30T04:35:53.907Z,19.51
2022-09-30T04:41:31.411Z,19.12
2022-09-30T04:46:44.711Z,19.15
2022-09-30T04:51:45.552Z,19.76
2022-09-30T04:57:00.952Z,19.66
2022-09-30T05:02:35.757Z,19.79
2022-09-30T05:07:36.514Z,20.08
2022-09-30T05:18:05.516Z,20.06
2022-09-30T05:24:09.695Z,19.66
2022-09-30T05:29:50.129Z,20.25
2022-09-30T05:35:14.624Z,20.80
2022-09-30T05:40:17.218Z,20.46
2022-09-30T05:45:29.006Z,21.08
2022-09-30T05:50:26.284Z,20.70
2022-09-30T05:55:50.041Z,20.89
2022-09-30T06:01:10.571Z,21.22
2022-09-30T06:06:10.687Z,21.21
2022-09-30T06:11:14.571Z,21.63
2022-09-30T06:16:17.557Z,21.57
2022-09-30T06:21:18.952Z,22.36
2022-09-30T06:26:23.662Z,22.03
2022-09-30T06:31:26.884Z,22.91
2022-09-30T06:36:28.752Z,22.76
2022-09-30T06:41:29.483Z,24.02
2022-09-30T06:46:42.305Z,25.75
2022-09-30T06:51:50.793Z,28.72
2022-09-30T06:57:04.099Z,31.33
2022-09-30T07:02:31.046Z,33.74
2022-09-30T07:07:28.325Z,35.53
2022-09-30T07:12:30.750Z,37.07
2022-09-30T07:17:29.618Z,38.06
2022-09-30T07:22:35.585Z,38.83
2022-09-30T07:28:14.334Z,38.87
2022-09-30T07:38:32.109Z,38.17
2022-09-30T07:43:38.234Z,38.10
2022-09-30T07:48:43.355Z,38.04
2022-09-30T07:53:58.504Z,38.90
2022-09-30T07:59:11.229Z,40.02
2022-09-30T08:04:21.495Z,40.91
2022-09-30T08:09:21.380Z,41.99
2022-09-30T08:14:20.642Z,42.68
2022-09-30T08:19:30.743Z,42.74
2022-09-30T08:24:30.392Z,43.04
2022-09-30T08:29:54.399Z,43.61
2022-09-30T08:35:10.765Z,43.79
2022-09-30T08:40:30.676Z,44.42
2022-09-30T08:45:49.625Z,44.58
2022-09-30T08:51:21.677Z,44.62
2022-09-30T08:56:37.131Z,44.69
2022-09-30T09:02:05.704Z,43.90
2022-09-30T09:07:11.054Z,43.01
2022-09-30T09:12:39.330Z,42.47
2022-09-30T09:18:22.537Z,42.54
2022-09-30T09:23:52.142Z,42.17
2022-09-30T09:29:52.895Z,41.19
2022-09-30T09:35:22.265Z,41.47
2022-09-30T09:46:44.648Z,41.89
2022-09-30T09:52:27.856Z,41.51
2022-09-30T09:57:30.927Z,41.27
2022-09-30T10:02:31.055Z,40.75
2022-09-30T10:07:29.650Z,40.45
2022-09-30T10:12:29.027Z,39.76
2022-09-30T10:17:29.672Z,39.89
2022-09-30T10:22:30.007Z,39.01
2022-09-30T10:27:36.035Z,38.28
2022-09-30T10:32:53.049Z,37.91
2022-09-30T10:43:52.642Z,36.60
2022-09-30T10:48:53.963Z,36.20
2022-09-30T10:54:24.519Z,35.52
2022-09-30T10:59:38.344Z,35.00
2022-09-30T11:04:54.357Z,34.71
2022-09-30T13:21:16.550Z,32.38
2022-09-30T13:27:31.559Z,32.14
2022-09-30T13:39:27.371Z,31.32
2022-09-30T13:57:32.175Z,31.05
2022-09-30T14:18:13.807Z,30.73
2022-09-30T14:51:14.725Z,30.36
2022-09-30T15:21:45.508Z,29.71
2022-09-30T15:47:09.004Z,29.13
2022-09-30T15:53:05.712Z,29.11
2022-09-30T15:58:56.855Z,28.41
2022-09-30T16:09:57.134Z,27.88
2022-09-30T16:15:10.565Z,27.55
2022-09-30T16:20:49.113Z,27.80
2022-09-30T16:26:32.577Z,27.07
2022-09-30T16:43:34.483Z,26.76
2022-09-30T17:02:34.422Z,26.60
2022-09-30T17:19:41.009Z,25.76
2022-09-30T17:26:09.727Z,25.27
2022-09-30T17:37:37.953Z,25.24
2022-09-30T17:43:48.031Z,24.97
2022-09-30T18:09:07.473Z,25.06
2022-09-30T18:15:50.671Z,24.71
2022-09-30T18:27:25.521Z,24.60
2022-09-30T18:32:49.552Z,24.44
2022-09-30T19:03:43.185Z,24.44
2022-09-30T19:15:47.461Z,24.25
2022-09-30T20:25:51.219Z,22.72
2022-09-30T20:43:11.710Z,22.53
2022-09-30T21:30:39.458Z,21.89
2022-09-30T21:36:13.520Z,21.89
2022-09-30T21:47:19.629Z,21.75
2022-09-30T21:58:17.541Z,21.46
2022-09-30T22:03:40.504Z,21.54
2022-09-30T22:09:40.659Z,21.57
2022-09-30T22:15:54.962Z,21.51
2022-09-30T22:21:26.808Z,21.86
2022-09-30T22:26:52.336Z,21.65
2022-09-30T22:32:33.335Z,21.26
2022-09-30T22:38:46.498Z,21.23
2022-09-30T22:50:45.346Z,21.25
2022-09-30T22:56:00.126Z,21.14
2022-09-30T23:02:00.632Z,21.73
2022-09-30T23:13:14.273Z,21.00
2022-09-30T23:18:50.676Z,21.50
2022-09-30T23:24:15.135Z,21.33
2022-09-30T23:54:13.501Z,20.93
2022-09-30T23:59:44.029Z,20.75
